sensor_id;sensor_type;location;lat;lon;timestamp;P1;durP1;ratioP1;P2;durP2;ratioP2
75427;SDS011;64008;55.612;37.698;2023-02-11T00:00:30;11.75;;;5.50;;
75427;SDS011;64008;55.612;37.698;2023-02-11T00:02:56;14.50;;;6.35;;
75427;SDS011;64008;55.612;37.698;2023-02-11T00:05:21;14.43;;;6.07;;
75427;SDS011;64008;55.612;37.698;2023-02-11T00:07:47;11.60;;;5.07;;
75427;SDS011;64008;55.612;37.698;2023-02-11T00:10:12;13.20;;;6.22;;
75427;SDS011;64008;55.612;37.698;2023-02-11T00:12:38;13.45;;;5.63;;
75427;SDS011;64008;55.612;37.698;2023-02-11T00:15:04;11.43;;;5.53;;
75427;SDS011;64008;55.612;37.698;2023-02-11T00:17:31;13.45;;;5.82;;
75427;SDS011;64008;55.612;37.698;2023-02-11T00:19:57;12.45;;;5.85;;
75427;SDS011;64008;55.612;37.698;2023-02-11T00:22:23;13.05;;;6.07;;
75427;SDS011;64008;55.612;37.698;2023-02-11T00:24:48;11.20;;;5.50;;
75427;SDS011;64008;55.612;37.698;2023-02-11T00:27:14;12.57;;;5.50;;
75427;SDS011;64008;55.612;37.698;2023-02-11T00:29:41;12.68;;;5.60;;
75427;SDS011;64008;55.612;37.698;2023-02-11T00:32:06;13.38;;;5.82;;
75427;SDS011;64008;55.612;37.698;2023-02-11T00:34:33;14.65;;;5.80;;
75427;SDS011;64008;55.612;37.698;2023-02-11T00:37:00;12.82;;;5.90;;
75427;SDS011;64008;55.612;37.698;2023-02-11T00:39:26;11.73;;;5.65;;
75427;SDS011;64008;55.612;37.698;2023-02-11T00:41:51;12.10;;;5.50;;
75427;SDS011;64008;55.612;37.698;2023-02-11T00:44:17;11.32;;;5.38;;
75427;SDS011;64008;55.612;37.698;2023-02-11T00:46:43;11.57;;;5.18;;
75427;SDS011;64008;55.612;37.698;2023-02-11T00:49:08;10.93;;;5.43;;
75427;SDS011;64008;55.612;37.698;2023-02-11T00:51:34;9.90;;;4.70;;
75427;SDS011;64008;55.612;37.698;2023-02-11T00:53:59;9.50;;;5.05;;
75427;SDS011;64008;55.612;37.698;2023-02-11T00:56:25;10.23;;;4.88;;
75427;SDS011;64008;55.612;37.698;2023-02-11T00:58:51;13.70;;;4.93;;
75427;SDS011;64008;55.612;37.698;2023-02-11T01:01:17;11.80;;;5.10;;
75427;SDS011;64008;55.612;37.698;2023-02-11T01:03:43;12.68;;;4.97;;
75427;SDS011;64008;55.612;37.698;2023-02-11T01:06:08;10.35;;;4.85;;
75427;SDS011;64008;55.612;37.698;2023-02-11T01:08:34;10.45;;;4.60;;
75427;SDS011;64008;55.612;37.698;2023-02-11T01:11:01;11.68;;;5.32;;
75427;SDS011;64008;55.612;37.698;2023-02-11T01:13:31;13.20;;;4.75;;
75427;SDS011;64008;55.612;37.698;2023-02-11T01:15:59;9.90;;;4.63;;
75427;SDS011;64008;55.612;37.698;2023-02-11T01:18:25;13.15;;;5.03;;
75427;SDS011;64008;55.612;37.698;2023-02-11T01:20:51;9.70;;;4.88;;
75427;SDS011;64008;55.612;37.698;2023-02-11T01:23:17;12.45;;;4.82;;
75427;SDS011;64008;55.612;37.698;2023-02-11T01:25:43;10.48;;;4.93;;
75427;SDS011;64008;55.612;37.698;2023-02-11T01:28:20;11.93;;;5.20;;
75427;SDS011;64008;55.612;37.698;2023-02-11T01:30:47;11.95;;;5.10;;
75427;SDS011;64008;55.612;37.698;2023-02-11T01:33:13;9.65;;;4.85;;
75427;SDS011;64008;55.612;37.698;2023-02-11T01:35:39;9.60;;;4.97;;
75427;SDS011;64008;55.612;37.698;2023-02-11T01:38:05;10.48;;;4.78;;
75427;SDS011;64008;55.612;37.698;2023-02-11T01:40:31;10.20;;;4.55;;
75427;SDS011;64008;55.612;37.698;2023-02-11T01:42:57;11.10;;;4.60;;
75427;SDS011;64008;55.612;37.698;2023-02-11T01:48:36;9.02;;;3.85;;
75427;SDS011;64008;55.612;37.698;2023-02-11T01:51:08;10.93;;;4.30;;
75427;SDS011;64008;55.612;37.698;2023-02-11T01:53:39;11.70;;;4.57;;
75427;SDS011;64008;55.612;37.698;2023-02-11T01:56:23;11.77;;;4.45;;
75427;SDS011;64008;55.612;37.698;2023-02-11T01:59:14;11.90;;;4.63;;
75427;SDS011;64008;55.612;37.698;2023-02-11T02:01:50;10.57;;;3.80;;
75427;SDS011;64008;55.612;37.698;2023-02-11T02:04:24;9.05;;;3.97;;
75427;SDS011;64008;55.612;37.698;2023-02-11T02:06:58;9.80;;;3.88;;
75427;SDS011;64008;55.612;37.698;2023-02-11T02:09:42;10.35;;;4.00;;
75427;SDS011;64008;55.612;37.698;2023-02-11T02:12:13;9.23;;;3.70;;
75427;SDS011;64008;55.612;37.698;2023-02-11T02:14:38;10.50;;;4.40;;
75427;SDS011;64008;55.612;37.698;2023-02-11T02:17:05;7.95;;;3.45;;
75427;SDS011;64008;55.612;37.698;2023-02-11T02:41:07;11.45;;;4.13;;
75427;SDS011;64008;55.612;37.698;2023-02-11T02:43:36;9.35;;;3.95;;
75427;SDS011;64008;55.612;37.698;2023-02-11T02:46:14;8.43;;;3.70;;
75427;SDS011;64008;55.612;37.698;2023-02-11T02:48:42;9.95;;;3.65;;
75427;SDS011;64008;55.612;37.698;2023-02-11T02:51:18;10.65;;;3.75;;
75427;SDS011;64008;55.612;37.698;2023-02-11T02:59:36;9.88;;;3.75;;
75427;SDS011;64008;55.612;37.698;2023-02-11T03:10:32;9.10;;;3.47;;
75427;SDS011;64008;55.612;37.698;2023-02-11T03:13:00;7.85;;;2.95;;
75427;SDS011;64008;55.612;37.698;2023-02-11T03:17:54;9.38;;;3.47;;
75427;SDS011;64008;55.612;37.698;2023-02-11T03:20:22;6.80;;;2.97;;
75427;SDS011;64008;55.612;37.698;2023-02-11T03:22:55;9.65;;;3.45;;
75427;SDS011;64008;55.612;37.698;2023-02-11T03:25:29;7.72;;;3.33;;
75427;SDS011;64008;55.612;37.698;2023-02-11T03:28:07;11.05;;;3.40;;
75427;SDS011;64008;55.612;37.698;2023-02-11T03:30:48;9.00;;;2.85;;
75427;SDS011;64008;55.612;37.698;2023-02-11T03:33:26;7.85;;;2.88;;
75427;SDS011;64008;55.612;37.698;2023-02-11T03:35:57;8.77;;;3.47;;
75427;SDS011;64008;55.612;37.698;2023-02-11T03:38:37;9.70;;;2.95;;
75427;SDS011;64008;55.612;37.698;2023-02-11T03:41:08;7.80;;;3.60;;
75427;SDS011;64008;55.612;37.698;2023-02-11T03:43:44;7.65;;;3.20;;
75427;SDS011;64008;55.612;37.698;2023-02-11T03:46:12;8.65;;;3.20;;
75427;SDS011;64008;55.612;37.698;2023-02-11T03:48:47;7.82;;;3.00;;
75427;SDS011;64008;55.612;37.698;2023-02-11T03:51:16;9.30;;;3.20;;
75427;SDS011;64008;55.612;37.698;2023-02-11T03:53:44;8.98;;;3.35;;
75427;SDS011;64008;55.612;37.698;2023-02-11T03:58:38;10.43;;;3.40;;
75427;SDS011;64008;55.612;37.698;2023-02-11T04:01:05;7.47;;;3.03;;
75427;SDS011;64008;55.612;37.698;2023-02-11T04:03:33;9.68;;;3.03;;
75427;SDS011;64008;55.612;37.698;2023-02-11T04:05:59;9.98;;;3.47;;
75427;SDS011;64008;55.612;37.698;2023-02-11T04:08:24;6.82;;;3.10;;
75427;SDS011;64008;55.612;37.698;2023-02-11T04:10:50;9.30;;;3.17;;
75427;SDS011;64008;55.612;37.698;2023-02-11T04:13:15;9.73;;;3.22;;
75427;SDS011;64008;55.612;37.698;2023-02-11T04:15:41;8.23;;;2.72;;
75427;SDS011;64008;55.612;37.698;2023-02-11T04:18:07;8.57;;;3.10;;
75427;SDS011;64008;55.612;37.698;2023-02-11T04:20:32;7.65;;;2.80;;
75427;SDS011;64008;55.612;37.698;2023-02-11T04:22:58;7.97;;;2.83;;
75427;SDS011;64008;55.612;37.698;2023-02-11T04:25:23;7.88;;;3.03;;
75427;SDS011;64008;55.612;37.698;2023-02-11T04:27:50;6.55;;;2.20;;
75427;SDS011;64008;55.612;37.698;2023-02-11T04:30:15;9.18;;;2.60;;
75427;SDS011;64008;55.612;37.698;2023-02-11T04:32:41;7.65;;;2.30;;
75427;SDS011;64008;55.612;37.698;2023-02-11T04:35:07;5.65;;;2.28;;
75427;SDS011;64008;55.612;37.698;2023-02-11T04:37:32;6.38;;;2.40;;
75427;SDS011;64008;55.612;37.698;2023-02-11T04:39:58;7.43;;;2.38;;
75427;SDS011;64008;55.612;37.698;2023-02-11T04:42:23;6.95;;;2.40;;
75427;SDS011;64008;55.612;37.698;2023-02-11T04:44:49;7.47;;;2.42;;
75427;SDS011;64008;55.612;37.698;2023-02-11T04:47:14;9.07;;;2.72;;
75427;SDS011;64008;55.612;37.698;2023-02-11T04:49:40;6.25;;;2.15;;
75427;SDS011;64008;55.612;37.698;2023-02-11T04:52:06;6.07;;;2.50;;
75427;SDS011;64008;55.612;37.698;2023-02-11T04:54:32;6.28;;;2.25;;
75427;SDS011;64008;55.612;37.698;2023-02-11T04:56:58;8.57;;;2.38;;
75427;SDS011;64008;55.612;37.698;2023-02-11T04:59:23;6.32;;;2.17;;
75427;SDS011;64008;55.612;37.698;2023-02-11T05:01:49;7.32;;;2.17;;
75427;SDS011;64008;55.612;37.698;2023-02-11T05:04:15;6.82;;;2.17;;
75427;SDS011;64008;55.612;37.698;2023-02-11T05:06:41;6.78;;;2.33;;
75427;SDS011;64008;55.612;37.698;2023-02-11T05:09:06;6.28;;;2.17;;
75427;SDS011;64008;55.612;37.698;2023-02-11T05:11:32;6.32;;;2.17;;
75427;SDS011;64008;55.612;37.698;2023-02-11T05:13:58;9.93;;;2.72;;
75427;SDS011;64008;55.612;37.698;2023-02-11T05:16:23;6.53;;;2.40;;
75427;SDS011;64008;55.612;37.698;2023-02-11T05:18:49;9.90;;;2.80;;
75427;SDS011;64008;55.612;37.698;2023-02-11T05:21:16;6.97;;;2.28;;
75427;SDS011;64008;55.612;37.698;2023-02-11T05:23:42;5.50;;;2.03;;
75427;SDS011;64008;55.612;37.698;2023-02-11T05:26:09;8.60;;;2.58;;
75427;SDS011;64008;55.612;37.698;2023-02-11T05:28:35;5.38;;;1.90;;
75427;SDS011;64008;55.612;37.698;2023-02-11T05:31:01;6.72;;;2.22;;
75427;SDS011;64008;55.612;37.698;2023-02-11T05:33:27;6.88;;;2.70;;
75427;SDS011;64008;55.612;37.698;2023-02-11T05:35:59;7.15;;;2.67;;
75427;SDS011;64008;55.612;37.698;2023-02-11T05:38:26;9.07;;;2.78;;
75427;SDS011;64008;55.612;37.698;2023-02-11T05:40:52;8.20;;;2.70;;
75427;SDS011;64008;55.612;37.698;2023-02-11T05:43:18;9.48;;;2.90;;
75427;SDS011;64008;55.612;37.698;2023-02-11T05:45:43;10.55;;;3.50;;
75427;SDS011;64008;55.612;37.698;2023-02-11T05:48:09;8.45;;;2.60;;
75427;SDS011;64008;55.612;37.698;2023-02-11T05:50:34;8.30;;;3.03;;
75427;SDS011;64008;55.612;37.698;2023-02-11T05:53:00;5.82;;;2.30;;
75427;SDS011;64008;55.612;37.698;2023-02-11T05:55:25;7.80;;;3.15;;
75427;SDS011;64008;55.612;37.698;2023-02-11T05:57:51;10.00;;;2.88;;
75427;SDS011;64008;55.612;37.698;2023-02-11T06:00:16;7.63;;;2.60;;
75427;SDS011;64008;55.612;37.698;2023-02-11T06:02:42;9.18;;;2.65;;
75427;SDS011;64008;55.612;37.698;2023-02-11T06:05:07;9.98;;;3.50;;
75427;SDS011;64008;55.612;37.698;2023-02-11T06:07:33;9.18;;;3.20;;
75427;SDS011;64008;55.612;37.698;2023-02-11T06:09:59;9.10;;;3.10;;
75427;SDS011;64008;55.612;37.698;2023-02-11T06:12:24;7.03;;;2.78;;
75427;SDS011;64008;55.612;37.698;2023-02-11T06:14:50;6.82;;;2.85;;
75427;SDS011;64008;55.612;37.698;2023-02-11T06:17:16;6.50;;;2.55;;
75427;SDS011;64008;55.612;37.698;2023-02-11T06:19:41;9.95;;;3.05;;
75427;SDS011;64008;55.612;37.698;2023-02-11T06:22:07;6.97;;;2.80;;
75427;SDS011;64008;55.612;37.698;2023-02-11T06:24:32;7.45;;;2.60;;
75427;SDS011;64008;55.612;37.698;2023-02-11T06:26:58;6.68;;;3.05;;
75427;SDS011;64008;55.612;37.698;2023-02-11T06:29:23;7.15;;;3.05;;
75427;SDS011;64008;55.612;37.698;2023-02-11T06:31:49;7.05;;;2.80;;
75427;SDS011;64008;55.612;37.698;2023-02-11T06:34:14;8.93;;;3.03;;
75427;SDS011;64008;55.612;37.698;2023-02-11T06:36:40;8.73;;;2.90;;
75427;SDS011;64008;55.612;37.698;2023-02-11T06:39:06;8.05;;;3.10;;
75427;SDS011;64008;55.612;37.698;2023-02-11T06:41:31;8.50;;;2.70;;
75427;SDS011;64008;55.612;37.698;2023-02-11T06:43:57;8.32;;;2.92;;
75427;SDS011;64008;55.612;37.698;2023-02-11T06:46:23;8.45;;;3.22;;
75427;SDS011;64008;55.612;37.698;2023-02-11T06:48:48;8.43;;;2.95;;
75427;SDS011;64008;55.612;37.698;2023-02-11T06:51:14;7.78;;;2.80;;
75427;SDS011;64008;55.612;37.698;2023-02-11T06:53:42;7.47;;;2.78;;
75427;SDS011;64008;55.612;37.698;2023-02-11T06:56:11;8.55;;;2.75;;
75427;SDS011;64008;55.612;37.698;2023-02-11T06:58:38;6.90;;;2.30;;
75427;SDS011;64008;55.612;37.698;2023-02-11T07:01:05;10.05;;;2.80;;
75427;SDS011;64008;55.612;37.698;2023-02-11T07:03:32;4.85;;;1.25;;
75427;SDS011;64008;55.612;37.698;2023-02-11T07:06:00;7.55;;;1.70;;
75427;SDS011;64008;55.612;37.698;2023-02-11T07:08:30;6.88;;;2.05;;
75427;SDS011;64008;55.612;37.698;2023-02-11T07:10:59;6.72;;;1.60;;
75427;SDS011;64008;55.612;37.698;2023-02-11T07:13:24;4.93;;;1.55;;
75427;SDS011;64008;55.612;37.698;2023-02-11T07:15:50;4.55;;;1.38;;
75427;SDS011;64008;55.612;37.698;2023-02-11T07:18:16;6.65;;;2.17;;
75427;SDS011;64008;55.612;37.698;2023-02-11T07:20:41;8.80;;;2.88;;
75427;SDS011;64008;55.612;37.698;2023-02-11T07:23:07;11.13;;;3.33;;
75427;SDS011;64008;55.612;37.698;2023-02-11T07:25:32;36.63;;;12.23;;
75427;SDS011;64008;55.612;37.698;2023-02-11T07:28:00;47.92;;;16.20;;
75427;SDS011;64008;55.612;37.698;2023-02-11T07:30:26;48.78;;;18.70;;
75427;SDS011;64008;55.612;37.698;2023-02-11T07:32:51;62.78;;;20.67;;
75427;SDS011;64008;55.612;37.698;2023-02-11T07:35:17;58.85;;;19.40;;
75427;SDS011;64008;55.612;37.698;2023-02-11T07:37:43;59.90;;;20.35;;
75427;SDS011;64008;55.612;37.698;2023-02-11T07:40:09;59.38;;;20.33;;
75427;SDS011;64008;55.612;37.698;2023-02-11T07:42:34;52.53;;;17.77;;
75427;SDS011;64008;55.612;37.698;2023-02-11T07:45:00;48.70;;;17.48;;
75427;SDS011;64008;55.612;37.698;2023-02-11T07:47:25;47.13;;;15.73;;
75427;SDS011;64008;55.612;37.698;2023-02-11T07:49:51;41.53;;;14.40;;
75427;SDS011;64008;55.612;37.698;2023-02-11T07:52:17;41.90;;;14.50;;
75427;SDS011;64008;55.612;37.698;2023-02-11T07:54:42;33.03;;;12.73;;
75427;SDS011;64008;55.612;37.698;2023-02-11T07:57:09;36.65;;;13.27;;
75427;SDS011;64008;55.612;37.698;2023-02-11T07:59:35;38.65;;;12.25;;
75427;SDS011;64008;55.612;37.698;2023-02-11T08:02:00;39.78;;;11.98;;
75427;SDS011;64008;55.612;37.698;2023-02-11T08:04:26;34.92;;;10.82;;
75427;SDS011;64008;55.612;37.698;2023-02-11T08:06:51;27.95;;;10.52;;
75427;SDS011;64008;55.612;37.698;2023-02-11T08:09:18;27.60;;;9.77;;
75427;SDS011;64008;55.612;37.698;2023-02-11T08:11:43;27.35;;;9.82;;
75427;SDS011;64008;55.612;37.698;2023-02-11T08:14:09;24.23;;;8.55;;
75427;SDS011;64008;55.612;37.698;2023-02-11T08:16:36;26.33;;;9.23;;
75427;SDS011;64008;55.612;37.698;2023-02-11T08:19:06;25.45;;;8.43;;
75427;SDS011;64008;55.612;37.698;2023-02-11T08:21:34;18.75;;;7.35;;
75427;SDS011;64008;55.612;37.698;2023-02-11T08:24:00;23.02;;;7.30;;
75427;SDS011;64008;55.612;37.698;2023-02-11T08:26:27;21.05;;;7.88;;
75427;SDS011;64008;55.612;37.698;2023-02-11T08:28:54;20.95;;;6.47;;
75427;SDS011;64008;55.612;37.698;2023-02-11T08:31:21;20.88;;;6.72;;
75427;SDS011;64008;55.612;37.698;2023-02-11T08:33:52;20.90;;;6.43;;
75427;SDS011;64008;55.612;37.698;2023-02-11T08:36:20;17.88;;;5.88;;
75427;SDS011;64008;55.612;37.698;2023-02-11T08:38:47;18.02;;;6.28;;
75427;SDS011;64008;55.612;37.698;2023-02-11T08:41:13;18.95;;;5.45;;
75427;SDS011;64008;55.612;37.698;2023-02-11T08:43:40;17.83;;;5.80;;
75427;SDS011;64008;55.612;37.698;2023-02-11T08:46:08;16.35;;;5.57;;
75427;SDS011;64008;55.612;37.698;2023-02-11T08:48:35;15.98;;;5.13;;
75427;SDS011;64008;55.612;37.698;2023-02-11T08:51:04;15.38;;;5.45;;
75427;SDS011;64008;55.612;37.698;2023-02-11T08:53:34;14.80;;;5.10;;
75427;SDS011;64008;55.612;37.698;2023-02-11T08:56:01;14.90;;;5.07;;
75427;SDS011;64008;55.612;37.698;2023-02-11T08:58:27;15.00;;;4.40;;
75427;SDS011;64008;55.612;37.698;2023-02-11T09:00:52;15.40;;;5.38;;
75427;SDS011;64008;55.612;37.698;2023-02-11T09:03:18;11.90;;;4.07;;
75427;SDS011;64008;55.612;37.698;2023-02-11T09:05:44;11.82;;;4.32;;
75427;SDS011;64008;55.612;37.698;2023-02-11T09:08:11;11.57;;;4.18;;
75427;SDS011;64008;55.612;37.698;2023-02-11T09:10:37;13.90;;;4.32;;
75427;SDS011;64008;55.612;37.698;2023-02-11T09:13:03;13.13;;;3.83;;
75427;SDS011;64008;55.612;37.698;2023-02-11T09:15:30;10.45;;;3.63;;
75427;SDS011;64008;55.612;37.698;2023-02-11T09:17:56;10.35;;;3.90;;
75427;SDS011;64008;55.612;37.698;2023-02-11T09:20:22;11.68;;;4.35;;
75427;SDS011;64008;55.612;37.698;2023-02-11T09:22:48;11.00;;;3.70;;
75427;SDS011;64008;55.612;37.698;2023-02-11T09:25:14;11.20;;;3.78;;
75427;SDS011;64008;55.612;37.698;2023-02-11T09:27:39;14.57;;;4.40;;
75427;SDS011;64008;55.612;37.698;2023-02-11T09:30:05;12.40;;;3.78;;
75427;SDS011;64008;55.612;37.698;2023-02-11T09:32:31;12.88;;;3.95;;
75427;SDS011;64008;55.612;37.698;2023-02-11T09:34:56;11.95;;;3.80;;
75427;SDS011;64008;55.612;37.698;2023-02-11T09:37:22;12.20;;;3.58;;
75427;SDS011;64008;55.612;37.698;2023-02-11T09:39:47;9.55;;;3.30;;
75427;SDS011;64008;55.612;37.698;2023-02-11T09:44:39;11.43;;;3.05;;
75427;SDS011;64008;55.612;37.698;2023-02-11T09:50:06;8.55;;;3.00;;
75427;SDS011;64008;55.612;37.698;2023-02-11T09:52:42;7.43;;;2.88;;
75427;SDS011;64008;55.612;37.698;2023-02-11T09:55:18;12.07;;;3.58;;
75427;SDS011;64008;55.612;37.698;2023-02-11T09:57:46;11.55;;;3.60;;
75427;SDS011;64008;55.612;37.698;2023-02-11T10:03:05;11.52;;;3.90;;
75427;SDS011;64008;55.612;37.698;2023-02-11T10:19:57;8.10;;;2.95;;
75427;SDS011;64008;55.612;37.698;2023-02-11T10:22:52;10.93;;;3.45;;
75427;SDS011;64008;55.612;37.698;2023-02-11T10:27:49;8.48;;;2.75;;
75427;SDS011;64008;55.612;37.698;2023-02-11T10:30:19;8.05;;;2.55;;
75427;SDS011;64008;55.612;37.698;2023-02-11T10:32:59;7.95;;;2.78;;
75427;SDS011;64008;55.612;37.698;2023-02-11T10:35:29;6.88;;;2.58;;
75427;SDS011;64008;55.612;37.698;2023-02-11T10:37:56;10.52;;;3.05;;
75427;SDS011;64008;55.612;37.698;2023-02-11T10:40:24;7.75;;;2.67;;
75427;SDS011;64008;55.612;37.698;2023-02-11T10:42:52;7.90;;;2.50;;
75427;SDS011;64008;55.612;37.698;2023-02-11T10:45:24;8.60;;;2.72;;
75427;SDS011;64008;55.612;37.698;2023-02-11T10:47:54;7.78;;;2.90;;
75427;SDS011;64008;55.612;37.698;2023-02-11T10:50:25;9.70;;;2.78;;
75427;SDS011;64008;55.612;37.698;2023-02-11T10:55:34;8.05;;;2.33;;
75427;SDS011;64008;55.612;37.698;2023-02-11T10:58:00;9.95;;;4.30;;
75427;SDS011;64008;55.612;37.698;2023-02-11T11:03:15;9.75;;;3.72;;
75427;SDS011;64008;55.612;37.698;2023-02-11T11:05:48;8.35;;;3.53;;
75427;SDS011;64008;55.612;37.698;2023-02-11T11:08:16;8.93;;;3.65;;
75427;SDS011;64008;55.612;37.698;2023-02-11T11:13:25;9.15;;;3.67;;
75427;SDS011;64008;55.612;37.698;2023-02-11T11:16:06;8.70;;;3.67;;
75427;SDS011;64008;55.612;37.698;2023-02-11T11:18:42;8.00;;;3.85;;
75427;SDS011;64008;55.612;37.698;2023-02-11T11:21:14;9.75;;;3.58;;
75427;SDS011;64008;55.612;37.698;2023-02-11T11:26:26;12.25;;;3.92;;
75427;SDS011;64008;55.612;37.698;2023-02-11T11:29:12;10.85;;;4.15;;
75427;SDS011;64008;55.612;37.698;2023-02-11T11:31:51;9.43;;;4.20;;
75427;SDS011;64008;55.612;37.698;2023-02-11T11:36:58;11.45;;;4.53;;
75427;SDS011;64008;55.612;37.698;2023-02-11T11:39:26;9.23;;;4.07;;
75427;SDS011;64008;55.612;37.698;2023-02-11T11:44:34;7.63;;;3.38;;
75427;SDS011;64008;55.612;37.698;2023-02-11T11:49:49;8.70;;;4.03;;
75427;SDS011;64008;55.612;37.698;2023-02-11T11:54:52;8.27;;;3.47;;
75427;SDS011;64008;55.612;37.698;2023-02-11T11:57:32;8.93;;;4.10;;
75427;SDS011;64008;55.612;37.698;2023-02-11T12:00:01;9.75;;;3.83;;
75427;SDS011;64008;55.612;37.698;2023-02-11T12:05:10;9.52;;;3.50;;
75427;SDS011;64008;55.612;37.698;2023-02-11T12:07:43;8.32;;;3.50;;
75427;SDS011;64008;55.612;37.698;2023-02-11T12:15:30;9.98;;;3.45;;
75427;SDS011;64008;55.612;37.698;2023-02-11T12:23:41;7.25;;;3.42;;
75427;SDS011;64008;55.612;37.698;2023-02-11T12:36:55;8.27;;;3.70;;
75427;SDS011;64008;55.612;37.698;2023-02-11T12:53:33;7.00;;;2.53;;
75427;SDS011;64008;55.612;37.698;2023-02-11T13:05:20;6.20;;;2.40;;
75427;SDS011;64008;55.612;37.698;2023-02-11T13:08:05;6.63;;;2.25;;
75427;SDS011;64008;55.612;37.698;2023-02-11T13:10:35;9.75;;;2.97;;
75427;SDS011;64008;55.612;37.698;2023-02-11T13:13:04;7.85;;;2.70;;
75427;SDS011;64008;55.612;37.698;2023-02-11T13:15:42;13.50;;;4.05;;
75427;SDS011;64008;55.612;37.698;2023-02-11T13:21:18;12.48;;;4.28;;
75427;SDS011;64008;55.612;37.698;2023-02-11T13:26:46;8.25;;;3.20;;
75427;SDS011;64008;55.612;37.698;2023-02-11T13:32:05;7.65;;;2.53;;
75427;SDS011;64008;55.612;37.698;2023-02-11T13:40:18;9.40;;;2.78;;
75427;SDS011;64008;55.612;37.698;2023-02-11T13:42:52;7.40;;;2.70;;
75427;SDS011;64008;55.612;37.698;2023-02-11T13:47:49;9.45;;;3.22;;
75427;SDS011;64008;55.612;37.698;2023-02-11T13:50:25;10.38;;;3.17;;
75427;SDS011;64008;55.612;37.698;2023-02-11T13:52:59;8.82;;;3.28;;
75427;SDS011;64008;55.612;37.698;2023-02-11T13:55:26;7.65;;;3.20;;
75427;SDS011;64008;55.612;37.698;2023-02-11T14:09:51;7.05;;;2.60;;
75427;SDS011;64008;55.612;37.698;2023-02-11T14:11:47;10.18;;;3.65;;
75427;SDS011;64008;55.612;37.698;2023-02-11T14:14:31;13.30;;;4.28;;
75427;SDS011;64008;55.612;37.698;2023-02-11T14:19:34;6.88;;;3.15;;
75427;SDS011;64008;55.612;37.698;2023-02-11T14:22:11;8.52;;;3.50;;
75427;SDS011;64008;55.612;37.698;2023-02-11T14:24:46;12.32;;;3.85;;
75427;SDS011;64008;55.612;37.698;2023-02-11T14:43:57;7.30;;;3.08;;
75427;SDS011;64008;55.612;37.698;2023-02-11T14:46:25;7.35;;;2.92;;
75427;SDS011;64008;55.612;37.698;2023-02-11T14:48:57;8.85;;;2.83;;
75427;SDS011;64008;55.612;37.698;2023-02-11T14:51:27;7.85;;;2.70;;
75427;SDS011;64008;55.612;37.698;2023-02-11T14:54:08;9.90;;;2.95;;
75427;SDS011;64008;55.612;37.698;2023-02-11T14:59:16;5.80;;;2.35;;
75427;SDS011;64008;55.612;37.698;2023-02-11T15:01:48;7.05;;;3.05;;
75427;SDS011;64008;55.612;37.698;2023-02-11T15:04:22;6.22;;;2.72;;
75427;SDS011;64008;55.612;37.698;2023-02-11T15:06:49;7.90;;;3.30;;
75427;SDS011;64008;55.612;37.698;2023-02-11T15:09:19;9.93;;;2.88;;
75427;SDS011;64008;55.612;37.698;2023-02-11T15:11:48;7.43;;;2.80;;
75427;SDS011;64008;55.612;37.698;2023-02-11T15:16:49;8.77;;;2.67;;
75427;SDS011;64008;55.612;37.698;2023-02-11T15:22:00;7.13;;;2.72;;
75427;SDS011;64008;55.612;37.698;2023-02-11T15:24:32;8.75;;;2.65;;
75427;SDS011;64008;55.612;37.698;2023-02-11T15:29:44;8.40;;;3.10;;
75427;SDS011;64008;55.612;37.698;2023-02-11T15:32:17;8.10;;;2.90;;
75427;SDS011;64008;55.612;37.698;2023-02-11T15:34:45;6.43;;;2.65;;
75427;SDS011;64008;55.612;37.698;2023-02-11T15:37:13;9.18;;;2.92;;
75427;SDS011;64008;55.612;37.698;2023-02-11T15:39:44;8.27;;;2.70;;
75427;SDS011;64008;55.612;37.698;2023-02-11T15:44:44;8.43;;;2.95;;
75427;SDS011;64008;55.612;37.698;2023-02-11T15:47:11;9.68;;;2.80;;
75427;SDS011;64008;55.612;37.698;2023-02-11T15:49:43;11.13;;;3.28;;
75427;SDS011;64008;55.612;37.698;2023-02-11T15:52:10;7.80;;;2.63;;
75427;SDS011;64008;55.612;37.698;2023-02-11T15:54:38;7.03;;;2.15;;
75427;SDS011;64008;55.612;37.698;2023-02-11T15:57:07;6.70;;;2.60;;
75427;SDS011;64008;55.612;37.698;2023-02-11T15:59:35;9.18;;;2.97;;
75427;SDS011;64008;55.612;37.698;2023-02-11T16:02:31;8.35;;;2.92;;
75427;SDS011;64008;55.612;37.698;2023-02-11T16:05:02;9.55;;;3.53;;
75427;SDS011;64008;55.612;37.698;2023-02-11T16:10:15;8.13;;;3.03;;
75427;SDS011;64008;55.612;37.698;2023-02-11T16:21:15;7.95;;;2.60;;
75427;SDS011;64008;55.612;37.698;2023-02-11T16:23:50;8.63;;;3.83;;
75427;SDS011;64008;55.612;37.698;2023-02-11T16:26:26;7.85;;;2.83;;
75427;SDS011;64008;55.612;37.698;2023-02-11T16:29:13;8.02;;;2.88;;
75427;SDS011;64008;55.612;37.698;2023-02-11T16:31:42;6.13;;;2.97;;
75427;SDS011;64008;55.612;37.698;2023-02-11T16:34:22;6.25;;;2.85;;
75427;SDS011;64008;55.612;37.698;2023-02-11T16:36:49;7.30;;;3.40;;
75427;SDS011;64008;55.612;37.698;2023-02-11T16:41:45;7.65;;;2.55;;
75427;SDS011;64008;55.612;37.698;2023-02-11T16:44:11;9.07;;;2.83;;
75427;SDS011;64008;55.612;37.698;2023-02-11T16:46:37;12.18;;;3.67;;
75427;SDS011;64008;55.612;37.698;2023-02-11T16:49:08;11.13;;;3.78;;
75427;SDS011;64008;55.612;37.698;2023-02-11T16:51:41;18.73;;;4.65;;
75427;SDS011;64008;55.612;37.698;2023-02-11T16:54:13;18.38;;;5.82;;
75427;SDS011;64008;55.612;37.698;2023-02-11T16:56:40;15.98;;;5.32;;
75427;SDS011;64008;55.612;37.698;2023-02-11T16:59:06;14.70;;;4.55;;
75427;SDS011;64008;55.612;37.698;2023-02-11T17:01:31;18.77;;;4.90;;
75427;SDS011;64008;55.612;37.698;2023-02-11T17:03:57;14.00;;;4.00;;
75427;SDS011;64008;55.612;37.698;2023-02-11T17:06:23;13.73;;;4.88;;
75427;SDS011;64008;55.612;37.698;2023-02-11T17:08:48;12.80;;;4.30;;
75427;SDS011;64008;55.612;37.698;2023-02-11T17:11:14;12.70;;;3.70;;
75427;SDS011;64008;55.612;37.698;2023-02-11T17:13:41;13.68;;;3.97;;
75427;SDS011;64008;55.612;37.698;2023-02-11T17:16:14;12.73;;;3.58;;
75427;SDS011;64008;55.612;37.698;2023-02-11T17:18:44;10.32;;;3.67;;
75427;SDS011;64008;55.612;37.698;2023-02-11T17:21:10;13.57;;;3.88;;
75427;SDS011;64008;55.612;37.698;2023-02-11T17:23:35;11.10;;;3.58;;
75427;SDS011;64008;55.612;37.698;2023-02-11T17:26:01;8.30;;;3.28;;
75427;SDS011;64008;55.612;37.698;2023-02-11T17:28:27;9.73;;;3.17;;
75427;SDS011;64008;55.612;37.698;2023-02-11T17:30:53;9.48;;;3.60;;
75427;SDS011;64008;55.612;37.698;2023-02-11T17:33:19;9.27;;;3.30;;
75427;SDS011;64008;55.612;37.698;2023-02-11T17:35:45;10.73;;;3.85;;
75427;SDS011;64008;55.612;37.698;2023-02-11T17:38:10;12.57;;;3.50;;
75427;SDS011;64008;55.612;37.698;2023-02-11T17:40:36;10.68;;;3.20;;
75427;SDS011;64008;55.612;37.698;2023-02-11T17:43:02;10.23;;;3.22;;
75427;SDS011;64008;55.612;37.698;2023-02-11T17:45:28;11.05;;;2.92;;
75427;SDS011;64008;55.612;37.698;2023-02-11T17:47:53;9.27;;;3.40;;
75427;SDS011;64008;55.612;37.698;2023-02-11T17:50:19;9.43;;;3.08;;
75427;SDS011;64008;55.612;37.698;2023-02-11T17:52:44;9.75;;;3.20;;
75427;SDS011;64008;55.612;37.698;2023-02-11T17:55:10;8.77;;;2.78;;
75427;SDS011;64008;55.612;37.698;2023-02-11T17:57:36;11.80;;;3.00;;
75427;SDS011;64008;55.612;37.698;2023-02-11T18:00:02;8.75;;;2.83;;
75427;SDS011;64008;55.612;37.698;2023-02-11T18:02:29;8.77;;;3.40;;
75427;SDS011;64008;55.612;37.698;2023-02-11T18:04:55;9.20;;;2.75;;
75427;SDS011;64008;55.612;37.698;2023-02-11T18:07:23;10.02;;;3.17;;